Time;durP1;ratioP1;P1;durP2;ratioP2;P2;SDS_P1;SDS_P2;PMS_P1;PMS_P2;Temp;Humidity;BMP_temperature;BMP_pressure;BME280_temperature;BME280_humidity;BME280_pressure;Samples;Min_cycle;Max_cycle;Signal;HPM_P1;HPM_P2
2023/10/30 00:02:05;;;;;;;216.68;16.50;;;;;;;;;;5028536;28;20057;-35
2023/10/30 00:04:34;;;;;;;161.23;13.20;;;;;;;;;;5030702;28;20092;-35
2023/10/30 00:07:01;;;;;;;287.60;19.67;;;;;;;;;;5031615;28;20105;-38
2023/10/30 00:09:28;;;;;;;268.10;19.10;;;;;;;;;;5031098;28;20119;-37
2023/10/30 00:11:55;;;;;;;196.73;14.82;;;;;;;;;;5029175;28;20026;-38
2023/10/30 00:14:22;;;;;;;138.65;10.90;;;;;;;;;;5013626;28;20491;-34
2023/10/30 00:16:49;;;;;;;102.18;9.60;;;;;;;;;;5020946;28;20415;-39
2023/10/30 00:19:16;;;;;;;105.53;9.20;;;;;;;;;;5028999;28;20571;-46
2023/10/30 00:21:43;;;;;;;79.75;8.15;;;;;;;;;;5030469;28;20061;-46
2023/10/30 00:24:11;;;;;;;72.55;7.15;;;;;;;;;;5029726;28;20060;-46
2023/10/30 00:26:39;;;;;;;74.82;7.18;;;;;;;;;;5030855;28;21464;-41
2023/10/30 00:29:06;;;;;;;85.78;6.75;;;;;;;;;;5031094;28;20037;-43
2023/10/30 00:31:34;;;;;;;54.92;5.82;;;;;;;;;;5025498;28;20037;-43
2023/10/30 00:34:01;;;;;;;56.17;5.28;;;;;;;;;;5030957;28;20403;-37
2023/10/30 00:36:28;;;;;;;96.35;8.45;;;;;;;;;;5034161;28;20044;-41
2023/10/30 00:38:55;;;;;;;46.35;4.43;;;;;;;;;;5029669;28;20033;-39
2023/10/30 00:41:22;;;;;;;38.20;3.88;;;;;;;;;;5029050;28;20037;-42
2023/10/30 00:43:49;;;;;;;46.13;5.03;;;;;;;;;;5031022;28;20041;-46
2023/10/30 00:46:17;;;;;;;47.88;4.30;;;;;;;;;;5030645;28;20033;-39
2023/10/30 00:48:44;;;;;;;43.67;4.50;;;;;;;;;;5030447;28;20040;-44
2023/10/30 00:51:11;;;;;;;47.50;5.93;;;;;;;;;;5017407;28;20037;-42
2023/10/30 00:53:38;;;;;;;43.33;5.28;;;;;;;;;;5020306;28;20021;-45
2023/10/30 00:56:06;;;;;;;79.93;6.07;;;;;;;;;;5028606;28;20034;-46
2023/10/30 00:58:33;;;;;;;79.10;7.13;;;;;;;;;;5028903;28;20116;-37
2023/10/30 01:01:00;;;;;;;70.95;6.47;;;;;;;;;;5020821;28;20033;-36
2023/10/30 01:03:27;;;;;;;93.20;7.97;;;;;;;;;;5027466;28;20036;-39
2023/10/30 01:06:01;;;;;;;70.65;6.82;;;;;;;;;;5021556;28;20033;-41
2023/10/30 01:08:29;;;;;;;67.47;6.07;;;;;;;;;;5006615;28;20080;-41
2023/10/30 01:10:57;;;;;;;63.33;6.72;;;;;;;;;;5018450;28;20029;-41
2023/10/30 01:13:24;;;;;;;133.52;7.60;;;;;;;;;;5019418;28;20142;-42
2023/10/30 01:15:55;;;;;;;73.22;6.78;;;;;;;;;;5015625;28;20032;-42
2023/10/30 01:18:23;;;;;;;81.55;7.55;;;;;;;;;;5028641;28;20038;-42
2023/10/30 01:20:51;;;;;;;72.70;7.20;;;;;;;;;;5024238;28;20042;-43
2023/10/30 01:23:18;;;;;;;94.85;8.27;;;;;;;;;;5026351;28;20484;-41
2023/10/30 01:25:47;;;;;;;77.55;7.13;;;;;;;;;;5029322;28;20103;-43
2023/10/30 01:28:14;;;;;;;77.78;7.20;;;;;;;;;;5030349;28;20030;-41
2023/10/30 01:30:41;;;;;;;79.88;6.55;;;;;;;;;;5030203;28;20041;-42
2023/10/30 01:33:08;;;;;;;63.83;5.22;;;;;;;;;;5030244;28;20052;-42
2023/10/30 01:35:36;;;;;;;49.60;5.20;;;;;;;;;;5020958;28;20131;-39
2023/10/30 01:38:04;;;;;;;39.45;5.47;;;;;;;;;;5027027;28;20038;-40
2023/10/30 01:40:31;;;;;;;51.53;4.93;;;;;;;;;;5030542;28;20053;-39
2023/10/30 01:42:58;;;;;;;41.80;4.72;;;;;;;;;;5030062;28;20041;-39
2023/10/30 01:45:25;;;;;;;73.97;6.40;;;;;;;;;;5023117;28;20033;-41
2023/10/30 01:47:56;;;;;;;41.22;4.80;;;;;;;;;;4996159;28;20396;-42
2023/10/30 01:50:23;;;;;;;36.28;3.75;;;;;;;;;;5004182;28;20017;-40
2023/10/30 01:52:50;;;;;;;35.78;4.35;;;;;;;;;;5025685;28;20084;-40
2023/10/30 01:55:17;;;;;;;33.95;3.50;;;;;;;;;;5017871;28;20041;-41
2023/10/30 01:57:44;;;;;;;41.80;3.05;;;;;;;;;;5015358;28;20037;-43
2023/10/30 02:00:12;;;;;;;30.08;3.08;;;;;;;;;;5012934;28;20042;-40
2023/10/30 02:02:39;;;;;;;30.10;3.20;;;;;;;;;;5026561;28;20042;-41
2023/10/30 02:05:08;;;;;;;25.20;3.00;;;;;;;;;;5019217;28;20113;-40
2023/10/30 02:07:36;;;;;;;19.95;3.10;;;;;;;;;;5019895;28;20033;-40
2023/10/30 02:10:04;;;;;;;22.88;2.58;;;;;;;;;;5023593;28;20029;-40
2023/10/30 02:12:32;;;;;;;25.35;3.05;;;;;;;;;;5027684;28;20065;-40
2023/10/30 02:14:59;;;;;;;25.65;2.38;;;;;;;;;;5031963;28;20458;-40
2023/10/30 02:17:26;;;;;;;27.90;3.08;;;;;;;;;;5032278;28;20099;-40
2023/10/30 02:19:53;;;;;;;26.10;2.88;;;;;;;;;;5030802;28;20116;-36
2023/10/30 02:22:20;;;;;;;20.67;2.42;;;;;;;;;;5030437;28;20079;-37
2023/10/30 02:24:47;;;;;;;25.35;3.03;;;;;;;;;;5030534;28;20038;-43
2023/10/30 02:27:14;;;;;;;17.05;2.55;;;;;;;;;;5029616;28;20037;-38
2023/10/30 02:29:41;;;;;;;16.58;2.45;;;;;;;;;;5033705;28;20025;-38
2023/10/30 02:32:08;;;;;;;31.88;3.58;;;;;;;;;;5032121;28;20484;-37
2023/10/30 02:34:35;;;;;;;18.75;2.85;;;;;;;;;;5033288;28;20037;-37
2023/10/30 02:37:02;;;;;;;13.95;2.40;;;;;;;;;;5032880;28;20444;-39
2023/10/30 02:39:32;;;;;;;17.50;2.78;;;;;;;;;;5013566;28;20057;-37
2023/10/30 02:42:02;;;;;;;24.70;2.60;;;;;;;;;;5011971;28;20057;-37
2023/10/30 02:44:30;;;;;;;18.70;2.60;;;;;;;;;;5019018;28;20032;-41
2023/10/30 02:46:57;;;;;;;19.17;2.60;;;;;;;;;;5032546;28;20028;-42
2023/10/30 02:49:25;;;;;;;14.50;2.20;;;;;;;;;;5032393;28;20030;-42
2023/10/30 02:51:52;;;;;;;15.45;2.10;;;;;;;;;;5014453;28;20045;-42
2023/10/30 02:54:19;;;;;;;11.00;1.75;;;;;;;;;;5032031;28;20045;-42
2023/10/30 02:56:46;;;;;;;11.93;2.35;;;;;;;;;;5032819;28;20056;-42
2023/10/30 02:59:13;;;;;;;13.30;1.88;;;;;;;;;;5030174;28;20032;-41
2023/10/30 03:01:41;;;;;;;12.93;1.77;;;;;;;;;;5032754;28;20040;-44
2023/10/30 03:04:12;;;;;;;17.92;2.05;;;;;;;;;;5032279;28;20082;-42
2023/10/30 03:06:40;;;;;;;14.43;2.10;;;;;;;;;;5032099;28;20033;-41
2023/10/30 03:09:08;;;;;;;15.73;2.40;;;;;;;;;;5032814;28;20028;-43
2023/10/30 03:11:35;;;;;;;9.93;1.88;;;;;;;;;;5032782;28;20044;-41
2023/10/30 03:14:02;;;;;;;12.95;1.98;;;;;;;;;;5032837;28;20055;-41
2023/10/30 03:16:29;;;;;;;7.88;1.98;;;;;;;;;;5033369;28;20073;-42
2023/10/30 03:18:56;;;;;;;12.57;2.28;;;;;;;;;;5033278;28;20511;-42
2023/10/30 03:21:23;;;;;;;6.60;1.80;;;;;;;;;;5032870;28;20107;-41
2023/10/30 03:23:50;;;;;;;10.05;1.42;;;;;;;;;;5032292;28;20029;-42
2023/10/30 03:26:17;;;;;;;5.30;1.40;;;;;;;;;;5033164;28;20130;-41
2023/10/30 03:28:44;;;;;;;8.65;1.50;;;;;;;;;;5033102;28;20033;-41
2023/10/30 03:31:11;;;;;;;7.80;1.55;;;;;;;;;;5033064;28;20160;-41
2023/10/30 03:33:38;;;;;;;6.45;1.48;;;;;;;;;;5032867;28;20040;-41
2023/10/30 03:36:05;;;;;;;9.45;1.95;;;;;;;;;;5032829;28;20056;-41
2023/10/30 03:38:32;;;;;;;14.15;1.80;;;;;;;;;;5032893;28;20503;-41
2023/10/30 03:41:00;;;;;;;5.45;1.02;;;;;;;;;;5032815;28;20091;-42
2023/10/30 03:43:27;;;;;;;8.02;1.40;;;;;;;;;;5032768;28;20115;-41
2023/10/30 03:45:54;;;;;;;8.00;1.40;;;;;;;;;;5015032;28;20029;-41
2023/10/30 03:48:21;;;;;;;8.90;1.63;;;;;;;;;;5032673;28;20030;-41
2023/10/30 03:50:51;;;;;;;7.53;1.65;;;;;;;;;;5032692;28;20044;-41
2023/10/30 03:53:18;;;;;;;7.68;1.40;;;;;;;;;;5032527;28;20025;-41
2023/10/30 03:55:45;;;;;;;9.82;1.30;;;;;;;;;;5032587;28;20021;-42
2023/10/30 03:58:12;;;;;;;5.13;1.00;;;;;;;;;;5032553;28;20021;-44
2023/10/30 04:00:39;;;;;;;7.25;1.48;;;;;;;;;;5032358;28;20041;-42
2023/10/30 04:03:06;;;;;;;6.13;1.40;;;;;;;;;;5032319;28;20025;-41
2023/10/30 04:05:33;;;;;;;6.10;1.17;;;;;;;;;;5032451;28;20029;-41
2023/10/30 04:08:00;;;;;;;7.32;1.30;;;;;;;;;;5032359;28;20476;-41
2023/10/30 04:10:27;;;;;;;9.60;1.75;;;;;;;;;;5032311;28;20025;-41
2023/10/30 04:12:54;;;;;;;3.80;0.98;;;;;;;;;;5032071;28;20025;-41
2023/10/30 04:15:21;;;;;;;6.25;1.05;;;;;;;;;;5032268;28;20032;-41
2023/10/30 04:17:49;;;;;;;3.70;1.00;;;;;;;;;;5032228;28;20026;-41
2023/10/30 04:20:16;;;;;;;5.72;0.90;;;;;;;;;;5031820;28;20042;-44
2023/10/30 04:22:43;;;;;;;5.53;1.48;;;;;;;;;;5031953;28;20057;-41
2023/10/30 04:25:12;;;;;;;6.63;1.10;;;;;;;;;;5031984;28;20025;-41
2023/10/30 04:27:39;;;;;;;5.38;1.10;;;;;;;;;;5031921;28;20392;-42
2023/10/30 04:30:06;;;;;;;7.75;1.30;;;;;;;;;;5031655;28;20022;-43
2023/10/30 04:32:33;;;;;;;2.90;0.90;;;;;;;;;;5032022;28;20029;-44
2023/10/30 04:35:00;;;;;;;4.13;0.80;;;;;;;;;;5031648;28;20022;-42
2023/10/30 04:37:27;;;;;;;6.85;1.00;;;;;;;;;;5031860;28;20033;-43
2023/10/30 04:39:54;;;;;;;9.50;1.38;;;;;;;;;;5031783;28;20561;-43
2023/10/30 04:42:21;;;;;;;3.50;0.75;;;;;;;;;;5031912;28;20017;-43
2023/10/30 04:44:48;;;;;;;4.30;0.90;;;;;;;;;;5031759;28;20120;-42
2023/10/30 04:47:15;;;;;;;3.78;0.95;;;;;;;;;;5031645;28;20407;-42
2023/10/30 04:49:45;;;;;;;6.25;1.27;;;;;;;;;;5031765;28;20017;-43
2023/10/30 04:52:12;;;;;;;3.80;0.82;;;;;;;;;;5031532;28;20034;-42
2023/10/30 04:54:39;;;;;;;5.18;1.02;;;;;;;;;;5031561;28;20373;-43
2023/10/30 04:57:06;;;;;;;6.55;1.30;;;;;;;;;;5031659;28;20033;-43
2023/10/30 04:59:34;;;;;;;4.50;0.60;;;;;;;;;;5031704;28;20055;-43
2023/10/30 05:02:01;;;;;;;4.93;1.00;;;;;;;;;;5031551;28;20042;-42
2023/10/30 05:04:28;;;;;;;5.68;1.02;;;;;;;;;;5031575;28;20103;-42
2023/10/30 05:06:55;;;;;;;2.70;0.90;;;;;;;;;;5031559;28;20039;-42
2023/10/30 05:09:22;;;;;;;3.42;0.90;;;;;;;;;;5031526;28;20026;-43
2023/10/30 05:11:49;;;;;;;4.10;1.00;;;;;;;;;;5031478;28;20037;-41
2023/10/30 05:14:16;;;;;;;3.72;1.10;;;;;;;;;;5031441;28;20033;-41
2023/10/30 05:16:43;;;;;;;6.13;0.75;;;;;;;;;;5031525;28;20418;-42
2023/10/30 05:19:10;;;;;;;5.53;1.15;;;;;;;;;;5031487;28;20065;-41
2023/10/30 05:21:37;;;;;;;4.15;0.70;;;;;;;;;;5031179;28;20053;-41
2023/10/30 05:24:05;;;;;;;7.47;0.73;;;;;;;;;;5031335;28;20076;-43
2023/10/30 05:26:32;;;;;;;3.67;0.50;;;;;;;;;;5031404;28;20025;-41
2023/10/30 05:28:59;;;;;;;3.85;0.80;;;;;;;;;;5031380;28;20030;-41
2023/10/30 05:31:26;;;;;;;6.97;0.98;;;;;;;;;;5031344;28;20038;-42
2023/10/30 05:33:53;;;;;;;4.25;0.77;;;;;;;;;;5031253;28;20035;-41
2023/10/30 05:36:20;;;;;;;4.93;0.90;;;;;;;;;;5031315;28;20033;-42
2023/10/30 05:38:47;;;;;;;4.22;0.70;;;;;;;;;;5031307;28;20029;-41
2023/10/30 05:41:14;;;;;;;3.83;0.70;;;;;;;;;;5031212;28;20029;-42
2023/10/30 05:43:41;;;;;;;3.03;0.77;;;;;;;;;;5031113;28;20030;-41
2023/10/30 05:46:08;;;;;;;2.17;0.68;;;;;;;;;;5032810;28;20025;-41
2023/10/30 05:48:35;;;;;;;4.70;0.82;;;;;;;;;;5034960;28;20026;-41
2023/10/30 05:51:02;;;;;;;4.80;0.82;;;;;;;;;;5034938;28;20041;-41
2023/10/30 05:53:29;;;;;;;4.68;1.05;;;;;;;;;;5034887;28;20029;-41
2023/10/30 05:55:56;;;;;;;2.80;0.55;;;;;;;;;;5017018;28;20394;-42
2023/10/30 05:58:23;;;;;;;4.30;0.55;;;;;;;;;;5034854;28;20045;-41
2023/10/30 06:00:50;;;;;;;2.63;0.50;;;;;;;;;;5033408;28;20025;-42
2023/10/30 06:03:17;;;;;;;3.17;0.77;;;;;;;;;;5016727;28;20029;-41
2023/10/30 06:05:44;;;;;;;2.92;0.60;;;;;;;;;;5034663;28;20494;-41
2023/10/30 06:08:12;;;;;;;2.10;0.65;;;;;;;;;;5034643;28;20036;-42
2023/10/30 06:10:39;;;;;;;4.03;0.60;;;;;;;;;;5034510;28;20032;-42
2023/10/30 06:13:09;;;;;;;2.22;0.50;;;;;;;;;;5034428;28;20029;-42
2023/10/30 06:15:36;;;;;;;3.55;0.63;;;;;;;;;;5034474;28;20369;-42
2023/10/30 06:18:03;;;;;;;2.53;0.60;;;;;;;;;;5034436;28;20025;-42
2023/10/30 06:20:31;;;;;;;2.67;0.60;;;;;;;;;;5034374;28;20036;-42
2023/10/30 06:22:59;;;;;;;5.97;0.52;;;;;;;;;;5034094;28;20049;-42
2023/10/30 06:25:26;;;;;;;2.42;0.60;;;;;;;;;;5034316;28;20035;-45
2023/10/30 06:27:53;;;;;;;4.95;0.70;;;;;;;;;;5034270;28;20026;-43
2023/10/30 06:30:20;;;;;;;4.03;0.55;;;;;;;;;;5034067;28;20437;-42
2023/10/30 06:32:47;;;;;;;1.17;0.40;;;;;;;;;;5034048;28;20021;-42
2023/10/30 06:35:14;;;;;;;1.73;0.40;;;;;;;;;;5034019;28;20048;-42
2023/10/30 06:37:41;;;;;;;2.03;0.30;;;;;;;;;;5034033;28;20709;-42
2023/10/30 06:40:08;;;;;;;1.23;0.43;;;;;;;;;;5033938;28;20021;-41
2023/10/30 06:42:35;;;;;;;3.22;0.40;;;;;;;;;;5033922;28;20522;-43
2023/10/30 06:45:03;;;;;;;4.40;0.60;;;;;;;;;;5016076;28;20037;-42
2023/10/30 06:47:30;;;;;;;1.45;0.30;;;;;;;;;;5033658;28;20110;-43
2023/10/30 06:49:58;;;;;;;1.15;0.40;;;;;;;;;;5033850;28;20045;-43
2023/10/30 06:52:25;;;;;;;3.00;0.60;;;;;;;;;;5033871;28;20026;-42
2023/10/30 06:54:52;;;;;;;1.67;0.40;;;;;;;;;;5033632;28;20829;-41
2023/10/30 06:57:19;;;;;;;1.77;0.30;;;;;;;;;;5033594;28;20034;-42
2023/10/30 06:59:46;;;;;;;3.95;0.57;;;;;;;;;;5033620;28;20018;-43
2023/10/30 07:02:13;;;;;;;1.48;0.30;;;;;;;;;;5033488;28;20080;-41
2023/10/30 07:04:40;;;;;;;1.92;0.40;;;;;;;;;;5033384;28;20013;-41
2023/10/30 07:07:07;;;;;;;1.10;0.32;;;;;;;;;;5033548;28;20128;-42
2023/10/30 07:09:34;;;;;;;0.98;0.30;;;;;;;;;;5033364;28;20112;-42
2023/10/30 07:12:01;;;;;;;1.15;0.40;;;;;;;;;;5033445;28;20041;-42
2023/10/30 07:14:28;;;;;;;1.45;0.38;;;;;;;;;;5033312;28;20029;-42
2023/10/30 07:16:55;;;;;;;1.25;0.40;;;;;;;;;;5033400;28;20087;-41
2023/10/30 07:19:23;;;;;;;1.35;0.30;;;;;;;;;;5033322;28;20060;-41
2023/10/30 07:21:50;;;;;;;0.88;0.40;;;;;;;;;;5032833;28;20411;-42
2023/10/30 07:24:17;;;;;;;0.93;0.40;;;;;;;;;;5033184;28;20028;-42
2023/10/30 07:26:44;;;;;;;3.10;0.40;;;;;;;;;;5032979;28;20494;-41
2023/10/30 07:29:11;;;;;;;2.42;0.50;;;;;;;;;;5033174;28;20017;-42
2023/10/30 07:31:38;;;;;;;4.43;0.40;;;;;;;;;;5033008;28;20029;-41
2023/10/30 07:34:05;;;;;;;2.50;0.40;;;;;;;;;;4999040;28;20478;-41
2023/10/30 07:36:33;;;;;;;1.45;0.30;;;;;;;;;;5033041;28;20072;-43
2023/10/30 07:39:00;;;;;;;0.73;0.40;;;;;;;;;;5032779;28;20061;-41
2023/10/30 07:41:27;;;;;;;2.25;0.50;;;;;;;;;;5032828;28;20029;-42
2023/10/30 07:43:54;;;;;;;0.52;0.32;;;;;;;;;;5032679;28;20039;-42
2023/10/30 07:46:21;;;;;;;1.67;0.40;;;;;;;;;;5032697;28;20448;-41
2023/10/30 07:48:48;;;;;;;1.20;0.40;;;;;;;;;;5032795;28;20075;-41
2023/10/30 07:51:15;;;;;;;1.83;0.73;;;;;;;;;;5032631;28;20454;-42
2023/10/30 07:53:42;;;;;;;3.47;0.45;;;;;;;;;;5032590;28;20079;-41
2023/10/30 07:56:10;;;;;;;1.75;0.40;;;;;;;;;;5032576;28;20018;-41
2023/10/30 07:58:37;;;;;;;1.75;0.20;;;;;;;;;;5032339;28;20100;-42
2023/10/30 08:01:04;;;;;;;0.68;0.28;;;;;;;;;;5032435;28;20052;-41
2023/10/30 08:03:31;;;;;;;1.10;0.35;;;;;;;;;;5032330;28;20025;-41
2023/10/30 08:06:02;;;;;;;0.98;0.30;;;;;;;;;;5032358;28;20096;-41
2023/10/30 08:08:29;;;;;;;0.63;0.22;;;;;;;;;;5031845;28;20100;-41
2023/10/30 08:10:56;;;;;;;1.52;0.20;;;;;;;;;;5032314;28;20094;-41
2023/10/30 08:13:23;;;;;;;3.25;0.40;;;;;;;;;;5032222;28;20028;-41
2023/10/30 08:15:50;;;;;;;2.05;0.40;;;;;;;;;;5032264;28;20022;-41
2023/10/30 08:18:17;;;;;;;0.93;0.30;;;;;;;;;;5032041;28;20022;-41
2023/10/30 08:20:44;;;;;;;0.52;0.22;;;;;;;;;;5031800;28;20029;-41
2023/10/30 08:23:11;;;;;;;0.70;0.30;;;;;;;;;;5032028;28;20056;-41
2023/10/30 08:25:38;;;;;;;1.98;0.20;;;;;;;;;;5032039;28;20021;-41
2023/10/30 08:28:05;;;;;;;0.88;0.30;;;;;;;;;;5032029;28;20022;-41
2023/10/30 08:30:32;;;;;;;2.08;0.35;;;;;;;;;;5031927;28;20348;-41
2023/10/30 08:33:00;;;;;;;2.58;0.38;;;;;;;;;;5031873;28;20037;-41
2023/10/30 08:35:27;;;;;;;0.77;0.20;;;;;;;;;;5031792;28;20025;-41
2023/10/30 08:37:55;;;;;;;0.73;0.30;;;;;;;;;;5031908;28;20044;-41
2023/10/30 08:40:22;;;;;;;0.98;0.40;;;;;;;;;;5031523;28;20042;-41
2023/10/30 08:42:49;;;;;;;1.85;0.40;;;;;;;;;;5031693;28;20022;-41
2023/10/30 08:45:16;;;;;;;2.60;0.30;;;;;;;;;;5031795;28;20423;-44
2023/10/30 08:47:44;;;;;;;1.52;0.20;;;;;;;;;;5031785;28;20468;-41
2023/10/30 08:50:11;;;;;;;0.85;0.30;;;;;;;;;;5031747;28;20067;-41
2023/10/30 08:52:39;;;;;;;0.82;0.30;;;;;;;;;;5031394;28;20034;-42
2023/10/30 08:55:06;;;;;;;0.38;0.20;;;;;;;;;;5031568;28;20112;-41
2023/10/30 08:57:34;;;;;;;2.67;0.30;;;;;;;;;;5031641;28;20032;-41
2023/10/30 09:00:01;;;;;;;1.40;0.50;;;;;;;;;;5031511;28;20037;-41
2023/10/30 09:02:28;;;;;;;1.13;0.30;;;;;;;;;;5029931;28;20112;-42
2023/10/30 09:04:55;;;;;;;0.93;0.20;;;;;;;;;;5031483;28;20395;-41
2023/10/30 09:07:22;;;;;;;0.73;0.20;;;;;;;;;;5031385;28;20081;-41
2023/10/30 09:09:48;;;;;;;1.27;0.20;;;;;;;;;;5031516;28;20108;-41
2023/10/30 09:12:15;;;;;;;0.95;0.35;;;;;;;;;;5031561;28;20034;-41
2023/10/30 09:14:42;;;;;;;0.50;0.20;;;;;;;;;;5031446;28;20017;-41
2023/10/30 09:17:10;;;;;;;1.15;0.30;;;;;;;;;;5031522;28;20079;-42
2023/10/30 09:19:37;;;;;;;0.32;0.20;;;;;;;;;;5031475;28;20026;-41
2023/10/30 09:22:05;;;;;;;0.60;0.30;;;;;;;;;;5034362;28;20132;-42
2023/10/30 09:24:32;;;;;;;1.02;0.30;;;;;;;;;;5035440;28;20022;-41
2023/10/30 09:26:59;;;;;;;2.38;0.30;;;;;;;;;;5035426;28;20101;-41
2023/10/30 09:29:26;;;;;;;1.58;0.40;;;;;;;;;;5035090;28;20484;-42
2023/10/30 09:31:53;;;;;;;4.53;0.45;;;;;;;;;;5035006;28;20083;-44
2023/10/30 09:34:20;;;;;;;7.07;0.80;;;;;;;;;;5034588;28;20025;-41
2023/10/30 09:36:47;;;;;;;3.03;0.40;;;;;;;;;;5032063;28;20013;-43
2023/10/30 09:39:14;;;;;;;2.20;0.60;;;;;;;;;;5034823;28;20040;-41
2023/10/30 09:41:45;;;;;;;4.63;0.60;;;;;;;;;;5035013;28;20045;-41
2023/10/30 09:44:12;;;;;;;1.85;0.52;;;;;;;;;;5034883;28;20036;-42
2023/10/30 09:46:39;;;;;;;1.88;0.35;;;;;;;;;;5034985;28;20050;-42
2023/10/30 09:49:11;;;;;;;2.05;0.47;;;;;;;;;;5034877;28;20049;-42
2023/10/30 09:51:42;;;;;;;5.43;0.50;;;;;;;;;;5034764;28;20033;-42
2023/10/30 09:54:09;;;;;;;6.60;0.80;;;;;;;;;;5034896;28;20476;-41
2023/10/30 09:56:39;;;;;;;4.65;0.70;;;;;;;;;;5034908;28;20029;-42
2023/10/30 09:59:06;;;;;;;2.10;0.60;;;;;;;;;;5034650;28;20049;-42
2023/10/30 10:01:34;;;;;;;4.20;0.52;;;;;;;;;;5034748;28;20029;-42
2023/10/30 10:04:01;;;;;;;11.23;0.60;;;;;;;;;;5034533;28;20030;-41
2023/10/30 10:06:28;;;;;;;2.60;0.60;;;;;;;;;;5034706;28;20053;-42
2023/10/30 10:08:55;;;;;;;8.15;0.70;;;;;;;;;;5034695;28;20099;-41
2023/10/30 10:11:22;;;;;;;4.10;0.70;;;;;;;;;;5034648;28;20030;-41
2023/10/30 10:13:53;;;;;;;2.40;0.82;;;;;;;;;;5034535;28;20029;-43
2023/10/30 10:16:25;;;;;;;4.30;1.10;;;;;;;;;;5034369;28;20033;-41
2023/10/30 10:18:52;;;;;;;5.20;1.00;;;;;;;;;;5034351;28;20029;-43
2023/10/30 10:21:21;;;;;;;4.55;0.90;;;;;;;;;;5034117;28;20145;-41
2023/10/30 10:23:48;;;;;;;5.25;0.80;;;;;;;;;;5034127;28;20037;-41
2023/10/30 10:26:16;;;;;;;2.53;0.68;;;;;;;;;;5034317;28;20055;-41
2023/10/30 10:28:44;;;;;;;2.75;0.90;;;;;;;;;;5034399;28;20029;-41
2023/10/30 10:31:11;;;;;;;7.57;0.70;;;;;;;;;;5033801;28;20036;-42
2023/10/30 10:33:38;;;;;;;4.18;0.73;;;;;;;;;;5034052;28;20365;-41
2023/10/30 10:36:06;;;;;;;3.50;0.70;;;;;;;;;;5034155;28;20026;-42
2023/10/30 10:38:33;;;;;;;7.90;1.23;;;;;;;;;;5033946;28;20100;-42
2023/10/30 10:41:00;;;;;;;6.45;1.08;;;;;;;;;;5033971;28;20026;-41
2023/10/30 10:43:28;;;;;;;7.07;1.10;;;;;;;;;;5033926;28;20037;-41
2023/10/30 10:45:56;;;;;;;9.77;1.00;;;;;;;;;;5033811;28;20108;-42
2023/10/30 10:48:27;;;;;;;6.88;1.08;;;;;;;;;;5033695;28;20057;-42
2023/10/30 10:51:03;;;;;;;6.63;0.95;;;;;;;;;;5030701;28;20109;-43
2023/10/30 10:53:30;;;;;;;4.65;1.20;;;;;;;;;;5033224;28;20048;-43
2023/10/30 10:56:04;;;;;;;7.82;1.30;;;;;;;;;;5032528;28;20021;-41
2023/10/30 10:58:41;;;;;;;9.68;1.20;;;;;;;;;;5030822;28;20068;-42
2023/10/30 11:01:10;;;;;;;10.23;1.05;;;;;;;;;;5032919;28;20032;-43
2023/10/30 11:03:37;;;;;;;12.48;1.50;;;;;;;;;;5033135;28;20068;-42
2023/10/30 11:06:06;;;;;;;12.27;1.63;;;;;;;;;;5032885;28;20029;-44
2023/10/30 11:08:36;;;;;;;9.82;1.65;;;;;;;;;;5032764;28;20108;-42
2023/10/30 11:11:03;;;;;;;6.35;1.25;;;;;;;;;;5032889;28;20033;-42
2023/10/30 11:13:51;;;;;;;11.05;1.23;;;;;;;;;;5030003;28;20029;-43
2023/10/30 11:16:24;;;;;;;11.52;1.33;;;;;;;;;;5031208;28;20028;-42
2023/10/30 11:18:50;;;;;;;;;;;;;;;;;;5030588;28;20018;-43
2023/10/30 11:21:18;;;;;;;6.70;1.23;;;;;;;;;;5032475;28;20379;-42
2023/10/30 11:23:48;;;;;;;21.88;2.42;;;;;;;;;;5032403;28;20041;-43
2023/10/30 11:26:44;;;;;;;22.38;2.05;;;;;;;;;;5032230;28;20033;-41
2023/10/30 11:29:12;;;;;;;16.40;1.90;;;;;;;;;;5026165;28;20092;-41
2023/10/30 11:32:15;;;;;;;5.97;1.40;;;;;;;;;;5025462;28;20558;-41
2023/10/30 11:34:43;;;;;;;9.43;1.58;;;;;;;;;;4932412;29;20042;-42
2023/10/30 11:37:11;;;;;;;10.68;1.13;;;;;;;;;;5014150;28;20037;-47
2023/10/30 11:39:39;;;;;;;7.38;1.15;;;;;;;;;;5030533;28;20029;-42
2023/10/30 11:42:30;;;;;;;11.18;1.63;;;;;;;;;;5031815;28;20061;-41
2023/10/30 11:45:15;;;;;;;16.17;1.50;;;;;;;;;;5029218;28;20590;-47
2023/10/30 11:48:03;;;;;;;7.28;0.90;;;;;;;;;;5030636;28;20475;-40
2023/10/30 11:50:33;;;;;;;7.05;1.20;;;;;;;;;;5014726;28;20404;-41
2023/10/30 11:53:01;;;;;;;11.40;1.13;;;;;;;;;;5031176;28;20025;-36
2023/10/30 11:55:29;;;;;;;8.30;1.27;;;;;;;;;;5031431;28;20041;-36
2023/10/30 11:57:58;;;;;;;7.07;0.80;;;;;;;;;;5031869;28;20574;-38
2023/10/30 12:00:25;;;;;;;6.95;1.17;;;;;;;;;;5030197;28;20033;-37
2023/10/30 12:02:52;;;;;;;10.27;0.95;;;;;;;;;;5031743;28;20022;-37
2023/10/30 12:05:19;;;;;;;10.05;1.38;;;;;;;;;;5031108;28;20025;-38
2023/10/30 12:07:46;;;;;;;7.05;1.23;;;;;;;;;;5028438;28;20074;-39
2023/10/30 12:10:13;;;;;;;10.10;1.17;;;;;;;;;;5030326;28;20034;-42
2023/10/30 12:12:41;;;;;;;9.73;1.30;;;;;;;;;;5031355;28;20029;-38
2023/10/30 12:15:08;;;;;;;5.80;1.00;;;;;;;;;;5032179;28;20025;-37
2023/10/30 12:17:36;;;;;;;13.85;1.48;;;;;;;;;;5031759;28;20112;-37
2023/10/30 12:20:04;;;;;;;7.72;1.23;;;;;;;;;;5031301;28;20043;-38
2023/10/30 12:22:31;;;;;;;5.38;1.20;;;;;;;;;;5029586;28;20056;-39
2023/10/30 12:24:58;;;;;;;3.85;0.95;;;;;;;;;;5031975;28;20817;-37
2023/10/30 12:27:26;;;;;;;5.50;1.10;;;;;;;;;;5031739;28;20262;-39
2023/10/30 12:29:56;;;;;;;5.75;1.08;;;;;;;;;;5031501;28;20456;-39
2023/10/30 12:32:26;;;;;;;11.60;1.15;;;;;;;;;;5030233;28;20025;-39
2023/10/30 12:34:54;;;;;;;8.55;1.08;;;;;;;;;;5014128;28;20432;-38
2023/10/30 12:37:25;;;;;;;16.85;1.15;;;;;;;;;;5031792;28;20060;-39
2023/10/30 12:40:03;;;;;;;14.75;1.45;;;;;;;;;;5031974;28;20097;-37
2023/10/30 12:42:33;;;;;;;16.55;2.13;;;;;;;;;;5031629;28;20038;-37
2023/10/30 12:45:03;;;;;;;13.30;1.35;;;;;;;;;;5031828;28;20056;-37
2023/10/30 12:47:31;;;;;;;7.90;1.30;;;;;;;;;;5031827;28;20017;-37
2023/10/30 12:49:58;;;;;;;12.07;1.33;;;;;;;;;;5031592;28;20480;-37
2023/10/30 12:52:25;;;;;;;9.43;1.40;;;;;;;;;;5013769;28;20044;-37
2023/10/30 12:54:52;;;;;;;9.10;1.70;;;;;;;;;;5031631;28;20033;-38
2023/10/30 12:57:19;;;;;;;6.93;1.10;;;;;;;;;;5031686;28;20100;-38
2023/10/30 12:59:46;;;;;;;6.90;1.10;;;;;;;;;;5031677;28;20025;-37
2023/10/30 13:02:13;;;;;;;11.57;1.23;;;;;;;;;;5031480;28;20034;-37
2023/10/30 13:04:40;;;;;;;10.75;1.50;;;;;;;;;;5031608;28;20029;-38
2023/10/30 13:07:07;;;;;;;7.40;1.13;;;;;;;;;;5031590;28;20033;-38
2023/10/30 13:09:34;;;;;;;9.68;1.40;;;;;;;;;;5031605;28;20021;-37
2023/10/30 13:12:01;;;;;;;9.15;1.13;;;;;;;;;;5031465;28;20021;-38
2023/10/30 13:14:28;;;;;;;9.70;1.25;;;;;;;;;;5031498;28;20030;-37
2023/10/30 13:16:55;;;;;;;10.00;1.05;;;;;;;;;;5031453;28;20464;-38
2023/10/30 13:19:22;;;;;;;8.95;1.05;;;;;;;;;;5031500;28;20033;-38
2023/10/30 13:21:50;;;;;;;8.80;0.95;;;;;;;;;;5031208;28;20136;-37
2023/10/30 13:24:17;;;;;;;9.55;1.10;;;;;;;;;;5031335;28;20024;-38
2023/10/30 13:26:44;;;;;;;5.13;1.33;;;;;;;;;;5031390;28;20067;-37
2023/10/30 13:29:11;;;;;;;6.47;0.88;;;;;;;;;;5031394;28;20071;-38
2023/10/30 13:31:38;;;;;;;15.05;1.40;;;;;;;;;;5031416;28;20112;-37
2023/10/30 13:34:05;;;;;;;10.57;1.00;;;;;;;;;;5031273;28;20029;-38
2023/10/30 13:36:32;;;;;;;10.13;1.45;;;;;;;;;;5031303;28;20495;-37
2023/10/30 13:38:59;;;;;;;14.10;1.25;;;;;;;;;;5031359;28;20041;-37
2023/10/30 13:41:26;;;;;;;9.30;0.95;;;;;;;;;;5031031;28;20041;-39
2023/10/30 13:43:53;;;;;;;9.85;1.20;;;;;;;;;;5031150;28;20488;-38
2023/10/30 13:46:20;;;;;;;9.07;1.02;;;;;;;;;;5031193;28;20033;-39
2023/10/30 13:48:48;;;;;;;5.13;1.27;;;;;;;;;;5031173;28;20024;-37
2023/10/30 13:51:15;;;;;;;11.07;0.90;;;;;;;;;;5031243;28;20037;-38
2023/10/30 13:53:42;;;;;;;23.13;1.50;;;;;;;;;;5031106;28;20025;-38
2023/10/30 13:56:09;;;;;;;7.72;0.98;;;;;;;;;;5031003;28;20391;-37
2023/10/30 13:58:38;;;;;;;11.95;1.00;;;;;;;;;;5031078;28;20029;-38
2023/10/30 14:01:05;;;;;;;6.60;1.05;;;;;;;;;;5031054;28;20032;-38
2023/10/30 14:03:32;;;;;;;10.25;1.00;;;;;;;;;;5030900;28;20770;-37
2023/10/30 14:05:59;;;;;;;8.70;0.88;;;;;;;;;;5030991;28;20041;-36
2023/10/30 14:08:28;;;;;;;5.72;0.75;;;;;;;;;;5034477;28;20407;-37
2023/10/30 14:10:56;;;;;;;7.13;1.15;;;;;;;;;;5034452;28;20029;-37
2023/10/30 14:13:23;;;;;;;5.90;0.88;;;;;;;;;;5034520;28;20060;-37
2023/10/30 14:15:50;;;;;;;7.35;1.02;;;;;;;;;;5034450;28;20361;-38
2023/10/30 14:18:17;;;;;;;6.35;0.85;;;;;;;;;;5034525;28;20107;-37
2023/10/30 14:20:43;;;;;;;5.15;0.80;;;;;;;;;;5034188;28;20040;-38
2023/10/30 14:23:10;;;;;;;9.32;1.55;;;;;;;;;;5034328;28;20025;-37
2023/10/30 14:25:38;;;;;;;4.97;0.93;;;;;;;;;;5034419;28;20052;-38
2023/10/30 14:28:05;;;;;;;4.00;0.80;;;;;;;;;;5034264;28;20041;-37
2023/10/30 14:30:32;;;;;;;3.60;0.70;;;;;;;;;;5034297;28;20029;-37
2023/10/30 14:32:59;;;;;;;11.82;1.05;;;;;;;;;;5034152;28;20419;-37
2023/10/30 14:35:25;;;;;;;10.80;0.85;;;;;;;;;;5034178;28;20032;-38
2023/10/30 14:37:52;;;;;;;8.57;1.10;;;;;;;;;;5034207;28;20025;-39
2023/10/30 14:40:19;;;;;;;6.60;0.93;;;;;;;;;;5034041;28;20056;-38
2023/10/30 14:42:46;;;;;;;5.45;1.15;;;;;;;;;;5033995;28;20025;-38